Zuni Pueblo, New Mexico
Current Conditions -  °F | °C
As of 10:53 PM on Friday 24 Oct 2014 (Local Time) from KGUP Reporting Station
Clear Clear  
Wind Chill:   Ceiling: Unl
Heat Index:   Visibility: 10mi
Dew Point:   Wind: 0mph
Humidity: 63%   Direction: NA
Pressure: 30.36"   Gusts: NA
Location:  35.0898°N, 108.763°W
Report Text: KGUP 250453Z AUTO 00000KT 10SM CLR 07/01 A3036 RMK AO2 SLP206 T00720006
Loading
Personal Weather Stations






























Interactive Weather Map
Tropical Storm Tracking
New forecast layout! Learn more

10-Day Weather Forecast

Advertisements
Track Severe Weather on mobile